South Teddington, United Kingdom
Current Conditions -  °F | °C
As of 12:20 PM on Friday 21 Nov 2014 (Local Time) from EGLL Reporting Station
Light Rain Light Rain  
Wind Chill:   Ceiling: 1300
Heat Index:   Visibility: 3mi
Dew Point:   Wind: 9mph
Humidity: 87%   Direction: 120°ESE
Pressure: 30.06"   Gusts: NA
Location:  51.43°N, 0.45°W
Report Text: EGLL 211220Z 12008KT 5000 -RA FEW010 BKN013 08/06 Q1018 TEMPO 4000 BKN008
Loading
Personal Weather Stations






























Interactive Weather Map New forecast layout! Learn more

10-Day Weather Forecast

Advertisements
Track Severe Weather on mobile